sensor_id;sensor_type;location;lat;lon;timestamp;P1;durP1;ratioP1;P2;durP2;ratioP2
22628;SDS011;11481;53.694;9.910;2023-05-14T00:01:08;6.90;;;4.05;;
22628;SDS011;11481;53.694;9.910;2023-05-14T00:03:34;7.10;;;4.07;;
22628;SDS011;11481;53.694;9.910;2023-05-14T00:06:02;5.72;;;4.10;;
22628;SDS011;11481;53.694;9.910;2023-05-14T00:08:28;6.78;;;4.28;;
22628;SDS011;11481;53.694;9.910;2023-05-14T00:10:55;8.57;;;4.82;;
22628;SDS011;11481;53.694;9.910;2023-05-14T00:13:22;7.80;;;4.22;;
22628;SDS011;11481;53.694;9.910;2023-05-14T00:15:49;6.20;;;4.05;;
22628;SDS011;11481;53.694;9.910;2023-05-14T00:18:15;7.45;;;4.40;;
22628;SDS011;11481;53.694;9.910;2023-05-14T00:20:42;6.32;;;4.03;;
22628;SDS011;11481;53.694;9.910;2023-05-14T00:23:09;6.85;;;4.40;;
22628;SDS011;11481;53.694;9.910;2023-05-14T00:25:36;6.70;;;3.92;;
22628;SDS011;11481;53.694;9.910;2023-05-14T00:28:03;8.90;;;4.35;;
22628;SDS011;11481;53.694;9.910;2023-05-14T00:30:30;6.93;;;4.32;;
22628;SDS011;11481;53.694;9.910;2023-05-14T00:32:56;5.53;;;3.53;;
22628;SDS011;11481;53.694;9.910;2023-05-14T00:35:23;5.63;;;3.67;;
22628;SDS011;11481;53.694;9.910;2023-05-14T00:37:49;8.15;;;4.03;;
22628;SDS011;11481;53.694;9.910;2023-05-14T00:40:16;7.45;;;3.95;;
22628;SDS011;11481;53.694;9.910;2023-05-14T00:42:43;8.77;;;4.88;;
22628;SDS011;11481;53.694;9.910;2023-05-14T00:45:10;7.57;;;4.70;;
22628;SDS011;11481;53.694;9.910;2023-05-14T00:47:36;7.13;;;4.40;;
22628;SDS011;11481;53.694;9.910;2023-05-14T00:50:04;6.93;;;4.05;;
22628;SDS011;11481;53.694;9.910;2023-05-14T00:52:31;6.25;;;4.47;;
22628;SDS011;11481;53.694;9.910;2023-05-14T00:54:58;6.72;;;4.25;;
22628;SDS011;11481;53.694;9.910;2023-05-14T00:57:25;9.25;;;4.15;;
22628;SDS011;11481;53.694;9.910;2023-05-14T00:59:52;6.65;;;4.20;;
22628;SDS011;11481;53.694;9.910;2023-05-14T01:02:18;7.18;;;4.47;;
22628;SDS011;11481;53.694;9.910;2023-05-14T01:04:45;6.03;;;4.03;;
22628;SDS011;11481;53.694;9.910;2023-05-14T01:09:49;10.05;;;4.95;;
22628;SDS011;11481;53.694;9.910;2023-05-14T01:12:26;7.28;;;4.40;;
22628;SDS011;11481;53.694;9.910;2023-05-14T01:15:08;7.18;;;4.82;;
22628;SDS011;11481;53.694;9.910;2023-05-14T01:17:39;9.52;;;5.38;;
22628;SDS011;11481;53.694;9.910;2023-05-14T01:20:09;7.82;;;4.55;;
22628;SDS011;11481;53.694;9.910;2023-05-14T01:22:37;7.60;;;4.30;;
22628;SDS011;11481;53.694;9.910;2023-05-14T01:25:04;5.45;;;4.00;;
22628;SDS011;11481;53.694;9.910;2023-05-14T01:27:42;8.30;;;4.40;;
22628;SDS011;11481;53.694;9.910;2023-05-14T01:30:18;10.15;;;4.82;;
22628;SDS011;11481;53.694;9.910;2023-05-14T01:32:52;5.50;;;3.47;;
22628;SDS011;11481;53.694;9.910;2023-05-14T01:35:23;8.10;;;4.13;;
22628;SDS011;11481;53.694;9.910;2023-05-14T01:38:02;8.07;;;4.28;;
22628;SDS011;11481;53.694;9.910;2023-05-14T01:40:31;7.57;;;4.72;;
22628;SDS011;11481;53.694;9.910;2023-05-14T01:42:59;7.65;;;4.22;;
22628;SDS011;11481;53.694;9.910;2023-05-14T01:45:27;5.72;;;4.00;;
22628;SDS011;11481;53.694;9.910;2023-05-14T01:47:55;7.88;;;4.63;;
22628;SDS011;11481;53.694;9.910;2023-05-14T01:50:21;6.63;;;4.47;;
22628;SDS011;11481;53.694;9.910;2023-05-14T01:52:48;5.97;;;4.30;;
22628;SDS011;11481;53.694;9.910;2023-05-14T01:55:18;9.80;;;4.07;;
22628;SDS011;11481;53.694;9.910;2023-05-14T01:57:44;8.70;;;4.25;;
22628;SDS011;11481;53.694;9.910;2023-05-14T02:00:11;8.18;;;4.60;;
22628;SDS011;11481;53.694;9.910;2023-05-14T02:02:38;6.15;;;4.00;;
22628;SDS011;11481;53.694;9.910;2023-05-14T02:05:05;6.55;;;4.10;;
22628;SDS011;11481;53.694;9.910;2023-05-14T02:07:33;6.45;;;4.07;;
22628;SDS011;11481;53.694;9.910;2023-05-14T02:09:59;8.07;;;4.55;;
22628;SDS011;11481;53.694;9.910;2023-05-14T02:12:26;5.32;;;3.70;;
22628;SDS011;11481;53.694;9.910;2023-05-14T02:14:52;7.22;;;4.68;;
22628;SDS011;11481;53.694;9.910;2023-05-14T02:17:19;7.22;;;4.35;;
22628;SDS011;11481;53.694;9.910;2023-05-14T02:19:46;8.13;;;4.10;;
22628;SDS011;11481;53.694;9.910;2023-05-14T02:22:12;8.52;;;4.25;;
22628;SDS011;11481;53.694;9.910;2023-05-14T02:24:39;6.43;;;4.45;;
22628;SDS011;11481;53.694;9.910;2023-05-14T02:27:06;6.63;;;4.22;;
22628;SDS011;11481;53.694;9.910;2023-05-14T02:29:33;7.05;;;4.30;;
22628;SDS011;11481;53.694;9.910;2023-05-14T02:31:59;6.60;;;4.25;;
22628;SDS011;11481;53.694;9.910;2023-05-14T02:34:26;8.45;;;4.63;;
22628;SDS011;11481;53.694;9.910;2023-05-14T02:36:52;7.40;;;4.47;;
22628;SDS011;11481;53.694;9.910;2023-05-14T02:39:19;10.05;;;4.60;;
22628;SDS011;11481;53.694;9.910;2023-05-14T02:41:45;9.02;;;4.53;;
22628;SDS011;11481;53.694;9.910;2023-05-14T02:44:12;6.45;;;4.40;;
22628;SDS011;11481;53.694;9.910;2023-05-14T02:46:39;8.48;;;4.75;;
22628;SDS011;11481;53.694;9.910;2023-05-14T02:49:05;7.03;;;4.63;;
22628;SDS011;11481;53.694;9.910;2023-05-14T02:51:32;11.88;;;4.78;;
22628;SDS011;11481;53.694;9.910;2023-05-14T02:53:59;8.13;;;4.70;;
22628;SDS011;11481;53.694;9.910;2023-05-14T02:56:25;8.15;;;4.70;;
22628;SDS011;11481;53.694;9.910;2023-05-14T02:58:52;7.43;;;4.22;;
22628;SDS011;11481;53.694;9.910;2023-05-14T03:01:19;7.30;;;4.47;;
22628;SDS011;11481;53.694;9.910;2023-05-14T03:03:46;8.27;;;4.55;;
22628;SDS011;11481;53.694;9.910;2023-05-14T03:06:14;7.18;;;4.57;;
22628;SDS011;11481;53.694;9.910;2023-05-14T03:08:41;7.20;;;4.45;;
22628;SDS011;11481;53.694;9.910;2023-05-14T03:11:07;6.55;;;4.05;;
22628;SDS011;11481;53.694;9.910;2023-05-14T03:13:34;8.90;;;5.03;;
22628;SDS011;11481;53.694;9.910;2023-05-14T03:16:01;7.57;;;4.80;;
22628;SDS011;11481;53.694;9.910;2023-05-14T03:18:27;7.47;;;4.85;;
22628;SDS011;11481;53.694;9.910;2023-05-14T03:20:55;10.15;;;4.57;;
22628;SDS011;11481;53.694;9.910;2023-05-14T03:23:22;8.65;;;4.82;;
22628;SDS011;11481;53.694;9.910;2023-05-14T03:25:49;7.22;;;4.53;;
22628;SDS011;11481;53.694;9.910;2023-05-14T03:28:16;8.27;;;4.80;;
22628;SDS011;11481;53.694;9.910;2023-05-14T03:30:42;5.90;;;4.45;;
22628;SDS011;11481;53.694;9.910;2023-05-14T03:33:09;7.32;;;4.60;;
22628;SDS011;11481;53.694;9.910;2023-05-14T03:35:36;8.00;;;4.50;;
22628;SDS011;11481;53.694;9.910;2023-05-14T03:38:02;7.50;;;4.75;;
22628;SDS011;11481;53.694;9.910;2023-05-14T03:40:29;8.35;;;5.35;;
22628;SDS011;11481;53.694;9.910;2023-05-14T03:42:56;10.05;;;4.93;;
22628;SDS011;11481;53.694;9.910;2023-05-14T03:45:22;9.15;;;5.03;;
22628;SDS011;11481;53.694;9.910;2023-05-14T03:47:49;7.53;;;4.95;;
22628;SDS011;11481;53.694;9.910;2023-05-14T03:50:16;7.72;;;5.10;;
22628;SDS011;11481;53.694;9.910;2023-05-14T03:52:42;6.32;;;4.07;;
22628;SDS011;11481;53.694;9.910;2023-05-14T03:55:09;8.43;;;4.25;;
22628;SDS011;11481;53.694;9.910;2023-05-14T03:57:37;7.47;;;4.57;;
22628;SDS011;11481;53.694;9.910;2023-05-14T04:00:07;7.18;;;4.60;;
22628;SDS011;11481;53.694;9.910;2023-05-14T04:02:34;8.10;;;5.03;;
22628;SDS011;11481;53.694;9.910;2023-05-14T04:05:01;7.57;;;4.60;;
22628;SDS011;11481;53.694;9.910;2023-05-14T04:07:29;7.50;;;4.53;;
22628;SDS011;11481;53.694;9.910;2023-05-14T04:09:56;8.85;;;5.05;;
22628;SDS011;11481;53.694;9.910;2023-05-14T04:12:23;8.77;;;4.82;;
22628;SDS011;11481;53.694;9.910;2023-05-14T04:14:49;7.35;;;4.47;;
22628;SDS011;11481;53.694;9.910;2023-05-14T04:17:16;7.30;;;4.40;;
22628;SDS011;11481;53.694;9.910;2023-05-14T04:19:42;10.13;;;5.38;;
22628;SDS011;11481;53.694;9.910;2023-05-14T04:22:09;8.55;;;4.72;;
22628;SDS011;11481;53.694;9.910;2023-05-14T04:24:36;6.82;;;4.15;;
22628;SDS011;11481;53.694;9.910;2023-05-14T04:27:02;10.25;;;4.35;;
22628;SDS011;11481;53.694;9.910;2023-05-14T04:29:29;9.95;;;4.35;;
22628;SDS011;11481;53.694;9.910;2023-05-14T04:31:56;7.13;;;4.70;;
22628;SDS011;11481;53.694;9.910;2023-05-14T04:34:22;7.15;;;4.72;;
22628;SDS011;11481;53.694;9.910;2023-05-14T04:36:49;8.20;;;5.07;;
22628;SDS011;11481;53.694;9.910;2023-05-14T04:39:16;8.75;;;4.68;;
22628;SDS011;11481;53.694;9.910;2023-05-14T04:41:43;10.50;;;4.55;;
22628;SDS011;11481;53.694;9.910;2023-05-14T04:44:11;10.90;;;4.88;;
22628;SDS011;11481;53.694;9.910;2023-05-14T04:46:38;8.93;;;5.43;;
22628;SDS011;11481;53.694;9.910;2023-05-14T04:49:04;7.07;;;4.50;;
22628;SDS011;11481;53.694;9.910;2023-05-14T04:51:31;8.88;;;5.03;;
22628;SDS011;11481;53.694;9.910;2023-05-14T04:53:57;8.15;;;5.13;;
22628;SDS011;11481;53.694;9.910;2023-05-14T04:56:24;8.93;;;5.15;;
22628;SDS011;11481;53.694;9.910;2023-05-14T04:58:51;6.88;;;4.50;;
22628;SDS011;11481;53.694;9.910;2023-05-14T05:01:17;7.72;;;4.82;;
22628;SDS011;11481;53.694;9.910;2023-05-14T05:03:44;6.32;;;4.28;;
22628;SDS011;11481;53.694;9.910;2023-05-14T05:06:11;9.18;;;4.80;;
22628;SDS011;11481;53.694;9.910;2023-05-14T05:08:37;7.35;;;4.53;;
22628;SDS011;11481;53.694;9.910;2023-05-14T05:11:04;8.23;;;5.10;;
22628;SDS011;11481;53.694;9.910;2023-05-14T05:13:31;8.38;;;5.28;;
22628;SDS011;11481;53.694;9.910;2023-05-14T05:15:57;7.63;;;5.32;;
22628;SDS011;11481;53.694;9.910;2023-05-14T05:18:26;7.55;;;5.10;;
22628;SDS011;11481;53.694;9.910;2023-05-14T05:20:52;7.82;;;5.20;;
22628;SDS011;11481;53.694;9.910;2023-05-14T05:23:20;9.18;;;5.35;;
22628;SDS011;11481;53.694;9.910;2023-05-14T05:25:47;10.15;;;5.03;;
22628;SDS011;11481;53.694;9.910;2023-05-14T05:28:14;7.65;;;4.97;;
22628;SDS011;11481;53.694;9.910;2023-05-14T05:30:41;9.00;;;4.97;;
22628;SDS011;11481;53.694;9.910;2023-05-14T05:33:10;8.13;;;5.10;;
22628;SDS011;11481;53.694;9.910;2023-05-14T05:35:39;8.10;;;5.28;;
22628;SDS011;11481;53.694;9.910;2023-05-14T05:38:06;7.88;;;5.22;;
22628;SDS011;11481;53.694;9.910;2023-05-14T05:40:33;8.60;;;4.65;;
22628;SDS011;11481;53.694;9.910;2023-05-14T05:43:00;8.77;;;5.40;;
22628;SDS011;11481;53.694;9.910;2023-05-14T05:45:26;8.05;;;4.90;;
22628;SDS011;11481;53.694;9.910;2023-05-14T05:47:53;7.43;;;4.68;;
22628;SDS011;11481;53.694;9.910;2023-05-14T05:50:20;9.20;;;5.22;;
22628;SDS011;11481;53.694;9.910;2023-05-14T05:52:47;8.23;;;5.20;;
22628;SDS011;11481;53.694;9.910;2023-05-14T05:55:16;8.73;;;5.03;;
22628;SDS011;11481;53.694;9.910;2023-05-14T05:57:44;7.10;;;5.03;;
22628;SDS011;11481;53.694;9.910;2023-05-14T06:00:10;8.73;;;4.68;;
22628;SDS011;11481;53.694;9.910;2023-05-14T06:02:40;7.15;;;5.25;;
22628;SDS011;11481;53.694;9.910;2023-05-14T06:05:09;8.10;;;5.43;;
22628;SDS011;11481;53.694;9.910;2023-05-14T06:07:36;8.23;;;4.95;;
22628;SDS011;11481;53.694;9.910;2023-05-14T06:10:04;7.85;;;4.93;;
22628;SDS011;11481;53.694;9.910;2023-05-14T06:12:32;11.38;;;5.20;;
22628;SDS011;11481;53.694;9.910;2023-05-14T06:14:58;7.72;;;4.63;;
22628;SDS011;11481;53.694;9.910;2023-05-14T06:17:25;7.22;;;4.53;;
22628;SDS011;11481;53.694;9.910;2023-05-14T06:19:53;8.07;;;4.78;;
22628;SDS011;11481;53.694;9.910;2023-05-14T06:22:20;7.20;;;4.28;;
22628;SDS011;11481;53.694;9.910;2023-05-14T06:24:47;7.65;;;4.57;;
22628;SDS011;11481;53.694;9.910;2023-05-14T06:27:14;10.68;;;4.88;;
22628;SDS011;11481;53.694;9.910;2023-05-14T06:29:41;7.93;;;4.63;;
22628;SDS011;11481;53.694;9.910;2023-05-14T06:32:07;8.25;;;4.53;;
22628;SDS011;11481;53.694;9.910;2023-05-14T06:34:35;7.07;;;4.30;;
22628;SDS011;11481;53.694;9.910;2023-05-14T06:37:01;7.53;;;4.20;;
22628;SDS011;11481;53.694;9.910;2023-05-14T06:39:29;6.65;;;4.35;;
22628;SDS011;11481;53.694;9.910;2023-05-14T06:41:56;11.25;;;4.65;;
22628;SDS011;11481;53.694;9.910;2023-05-14T06:44:22;5.82;;;3.80;;
22628;SDS011;11481;53.694;9.910;2023-05-14T06:46:49;7.50;;;4.25;;
22628;SDS011;11481;53.694;9.910;2023-05-14T06:49:15;8.80;;;4.70;;
22628;SDS011;11481;53.694;9.910;2023-05-14T06:51:44;6.30;;;4.10;;
22628;SDS011;11481;53.694;9.910;2023-05-14T06:54:11;5.63;;;3.92;;
22628;SDS011;11481;53.694;9.910;2023-05-14T06:56:38;6.38;;;4.45;;
22628;SDS011;11481;53.694;9.910;2023-05-14T06:59:04;7.10;;;4.35;;
22628;SDS011;11481;53.694;9.910;2023-05-14T07:01:31;6.47;;;4.20;;
22628;SDS011;11481;53.694;9.910;2023-05-14T07:03:58;5.80;;;4.00;;
22628;SDS011;11481;53.694;9.910;2023-05-14T07:06:24;5.88;;;3.90;;
22628;SDS011;11481;53.694;9.910;2023-05-14T07:08:53;6.00;;;3.63;;
22628;SDS011;11481;53.694;9.910;2023-05-14T07:11:20;5.07;;;3.50;;
22628;SDS011;11481;53.694;9.910;2023-05-14T07:13:48;5.93;;;4.18;;
22628;SDS011;11481;53.694;9.910;2023-05-14T07:16:15;5.38;;;3.30;;
22628;SDS011;11481;53.694;9.910;2023-05-14T07:18:41;6.15;;;3.90;;
22628;SDS011;11481;53.694;9.910;2023-05-14T07:21:09;5.63;;;3.42;;
22628;SDS011;11481;53.694;9.910;2023-05-14T07:23:36;5.95;;;4.00;;
22628;SDS011;11481;53.694;9.910;2023-05-14T07:26:06;8.40;;;3.83;;
22628;SDS011;11481;53.694;9.910;2023-05-14T07:28:34;5.22;;;3.85;;
22628;SDS011;11481;53.694;9.910;2023-05-14T07:31:01;6.38;;;3.60;;
22628;SDS011;11481;53.694;9.910;2023-05-14T07:33:37;6.05;;;3.67;;
22628;SDS011;11481;53.694;9.910;2023-05-14T07:36:03;5.57;;;3.38;;
22628;SDS011;11481;53.694;9.910;2023-05-14T07:38:31;5.30;;;3.35;;
22628;SDS011;11481;53.694;9.910;2023-05-14T07:40:57;4.80;;;3.30;;
22628;SDS011;11481;53.694;9.910;2023-05-14T07:43:24;4.88;;;2.75;;
22628;SDS011;11481;53.694;9.910;2023-05-14T07:45:51;5.55;;;3.45;;
22628;SDS011;11481;53.694;9.910;2023-05-14T07:48:18;5.05;;;3.55;;
22628;SDS011;11481;53.694;9.910;2023-05-14T07:50:44;4.63;;;3.53;;
22628;SDS011;11481;53.694;9.910;2023-05-14T07:53:11;5.05;;;3.13;;
22628;SDS011;11481;53.694;9.910;2023-05-14T07:55:37;6.68;;;3.90;;
22628;SDS011;11481;53.694;9.910;2023-05-14T07:58:04;5.05;;;3.42;;
22628;SDS011;11481;53.694;9.910;2023-05-14T08:00:31;5.38;;;3.45;;
22628;SDS011;11481;53.694;9.910;2023-05-14T08:02:58;4.15;;;3.00;;
22628;SDS011;11481;53.694;9.910;2023-05-14T08:05:25;4.85;;;2.97;;
22628;SDS011;11481;53.694;9.910;2023-05-14T08:07:52;4.25;;;3.08;;
22628;SDS011;11481;53.694;9.910;2023-05-14T08:10:18;5.70;;;3.42;;
22628;SDS011;11481;53.694;9.910;2023-05-14T08:12:45;6.40;;;3.58;;
22628;SDS011;11481;53.694;9.910;2023-05-14T08:15:12;6.00;;;3.47;;
22628;SDS011;11481;53.694;9.910;2023-05-14T08:17:39;4.45;;;3.10;;
22628;SDS011;11481;53.694;9.910;2023-05-14T08:20:06;5.45;;;3.10;;
22628;SDS011;11481;53.694;9.910;2023-05-14T08:22:34;5.22;;;3.22;;
22628;SDS011;11481;53.694;9.910;2023-05-14T08:25:01;5.85;;;3.35;;
22628;SDS011;11481;53.694;9.910;2023-05-14T08:27:28;5.57;;;2.97;;
22628;SDS011;11481;53.694;9.910;2023-05-14T08:29:55;4.82;;;3.03;;
22628;SDS011;11481;53.694;9.910;2023-05-14T08:32:22;4.25;;;2.92;;
22628;SDS011;11481;53.694;9.910;2023-05-14T08:34:49;4.28;;;3.03;;
22628;SDS011;11481;53.694;9.910;2023-05-14T08:37:18;6.55;;;3.20;;
22628;SDS011;11481;53.694;9.910;2023-05-14T08:39:44;4.95;;;2.80;;
22628;SDS011;11481;53.694;9.910;2023-05-14T08:42:12;5.47;;;3.55;;
22628;SDS011;11481;53.694;9.910;2023-05-14T08:44:44;5.25;;;2.85;;
22628;SDS011;11481;53.694;9.910;2023-05-14T08:47:14;5.30;;;3.17;;
22628;SDS011;11481;53.694;9.910;2023-05-14T08:49:43;5.05;;;3.08;;
22628;SDS011;11481;53.694;9.910;2023-05-14T08:52:12;4.57;;;2.95;;
22628;SDS011;11481;53.694;9.910;2023-05-14T08:54:41;5.70;;;2.97;;
22628;SDS011;11481;53.694;9.910;2023-05-14T08:57:08;9.15;;;3.17;;
22628;SDS011;11481;53.694;9.910;2023-05-14T08:59:36;5.22;;;3.00;;
22628;SDS011;11481;53.694;9.910;2023-05-14T09:02:03;6.38;;;3.00;;
22628;SDS011;11481;53.694;9.910;2023-05-14T09:04:32;5.25;;;2.95;;
22628;SDS011;11481;53.694;9.910;2023-05-14T09:07:01;4.68;;;3.03;;
22628;SDS011;11481;53.694;9.910;2023-05-14T09:09:29;6.88;;;2.95;;
22628;SDS011;11481;53.694;9.910;2023-05-14T09:11:56;4.78;;;3.17;;
22628;SDS011;11481;53.694;9.910;2023-05-14T09:14:23;4.93;;;2.75;;
22628;SDS011;11481;53.694;9.910;2023-05-14T09:16:50;5.10;;;2.95;;
22628;SDS011;11481;53.694;9.910;2023-05-14T09:19:17;3.70;;;2.40;;
22628;SDS011;11481;53.694;9.910;2023-05-14T09:21:45;4.50;;;3.00;;
22628;SDS011;11481;53.694;9.910;2023-05-14T09:24:20;5.38;;;2.35;;
22628;SDS011;11481;53.694;9.910;2023-05-14T09:26:51;4.97;;;2.47;;
22628;SDS011;11481;53.694;9.910;2023-05-14T09:29:19;4.90;;;2.67;;
22628;SDS011;11481;53.694;9.910;2023-05-14T09:31:48;4.18;;;2.35;;
22628;SDS011;11481;53.694;9.910;2023-05-14T09:34:29;6.90;;;2.95;;
22628;SDS011;11481;53.694;9.910;2023-05-14T09:36:57;3.50;;;2.60;;
22628;SDS011;11481;53.694;9.910;2023-05-14T09:39:26;4.75;;;2.85;;
22628;SDS011;11481;53.694;9.910;2023-05-14T09:41:53;4.00;;;2.33;;
22628;SDS011;11481;53.694;9.910;2023-05-14T09:44:21;4.70;;;3.20;;
22628;SDS011;11481;53.694;9.910;2023-05-14T09:46:50;5.25;;;2.88;;
22628;SDS011;11481;53.694;9.910;2023-05-14T09:49:18;5.85;;;2.88;;
22628;SDS011;11481;53.694;9.910;2023-05-14T09:51:45;4.68;;;2.83;;
22628;SDS011;11481;53.694;9.910;2023-05-14T09:54:13;4.68;;;2.40;;
22628;SDS011;11481;53.694;9.910;2023-05-14T09:56:39;4.15;;;2.67;;
22628;SDS011;11481;53.694;9.910;2023-05-14T09:59:07;5.75;;;2.65;;
22628;SDS011;11481;53.694;9.910;2023-05-14T10:01:34;3.92;;;2.70;;
22628;SDS011;11481;53.694;9.910;2023-05-14T10:04:02;3.60;;;2.33;;
22628;SDS011;11481;53.694;9.910;2023-05-14T10:06:35;3.42;;;2.05;;
22628;SDS011;11481;53.694;9.910;2023-05-14T10:09:05;4.03;;;2.53;;
22628;SDS011;11481;53.694;9.910;2023-05-14T10:11:41;5.15;;;2.60;;
22628;SDS011;11481;53.694;9.910;2023-05-14T10:14:13;3.90;;;2.60;;
22628;SDS011;11481;53.694;9.910;2023-05-14T10:16:48;4.32;;;2.60;;
22628;SDS011;11481;53.694;9.910;2023-05-14T10:19:17;3.85;;;2.22;;
22628;SDS011;11481;53.694;9.910;2023-05-14T10:21:52;4.57;;;2.92;;
22628;SDS011;11481;53.694;9.910;2023-05-14T10:24:22;6.63;;;2.70;;
22628;SDS011;11481;53.694;9.910;2023-05-14T10:26:50;4.78;;;2.83;;
22628;SDS011;11481;53.694;9.910;2023-05-14T10:29:19;3.78;;;2.50;;
22628;SDS011;11481;53.694;9.910;2023-05-14T10:31:57;5.00;;;2.60;;
22628;SDS011;11481;53.694;9.910;2023-05-14T10:34:35;3.30;;;2.50;;
22628;SDS011;11481;53.694;9.910;2023-05-14T10:37:04;6.18;;;2.78;;
22628;SDS011;11481;53.694;9.910;2023-05-14T10:39:41;4.35;;;2.38;;
22628;SDS011;11481;53.694;9.910;2023-05-14T10:42:27;8.02;;;2.70;;
22628;SDS011;11481;53.694;9.910;2023-05-14T10:45:01;4.32;;;2.50;;
22628;SDS011;11481;53.694;9.910;2023-05-14T10:47:34;4.90;;;2.60;;
22628;SDS011;11481;53.694;9.910;2023-05-14T10:50:02;6.40;;;2.55;;
22628;SDS011;11481;53.694;9.910;2023-05-14T10:52:32;5.15;;;2.40;;
22628;SDS011;11481;53.694;9.910;2023-05-14T10:55:02;8.25;;;2.50;;
22628;SDS011;11481;53.694;9.910;2023-05-14T10:57:36;3.38;;;2.28;;
22628;SDS011;11481;53.694;9.910;2023-05-14T11:00:07;4.95;;;2.90;;
22628;SDS011;11481;53.694;9.910;2023-05-14T11:02:36;23.52;;;4.05;;
22628;SDS011;11481;53.694;9.910;2023-05-14T11:05:07;4.78;;;2.80;;
22628;SDS011;11481;53.694;9.910;2023-05-14T11:07:43;4.53;;;2.40;;
22628;SDS011;11481;53.694;9.910;2023-05-14T11:10:13;4.78;;;2.35;;
22628;SDS011;11481;53.694;9.910;2023-05-14T11:12:47;7.82;;;2.97;;
22628;SDS011;11481;53.694;9.910;2023-05-14T11:15:16;5.00;;;2.75;;
22628;SDS011;11481;53.694;9.910;2023-05-14T11:17:48;4.03;;;2.78;;
22628;SDS011;11481;53.694;9.910;2023-05-14T11:20:16;4.93;;;2.60;;
22628;SDS011;11481;53.694;9.910;2023-05-14T11:22:44;5.68;;;2.92;;
22628;SDS011;11481;53.694;9.910;2023-05-14T11:25:12;5.80;;;2.63;;
22628;SDS011;11481;53.694;9.910;2023-05-14T11:27:40;4.88;;;2.50;;
22628;SDS011;11481;53.694;9.910;2023-05-14T11:30:15;9.55;;;2.70;;
22628;SDS011;11481;53.694;9.910;2023-05-14T11:32:44;6.80;;;2.67;;
22628;SDS011;11481;53.694;9.910;2023-05-14T11:35:12;4.28;;;2.40;;
22628;SDS011;11481;53.694;9.910;2023-05-14T11:37:39;5.80;;;2.80;;
22628;SDS011;11481;53.694;9.910;2023-05-14T11:40:06;5.82;;;2.85;;
22628;SDS011;11481;53.694;9.910;2023-05-14T11:42:39;5.50;;;2.67;;
22628;SDS011;11481;53.694;9.910;2023-05-14T11:45:11;6.47;;;3.00;;
22628;SDS011;11481;53.694;9.910;2023-05-14T11:47:39;5.93;;;3.25;;
22628;SDS011;11481;53.694;9.910;2023-05-14T11:50:08;5.57;;;3.30;;
22628;SDS011;11481;53.694;9.910;2023-05-14T11:52:36;4.32;;;2.90;;
22628;SDS011;11481;53.694;9.910;2023-05-14T11:55:08;4.78;;;2.83;;
22628;SDS011;11481;53.694;9.910;2023-05-14T11:57:39;5.43;;;3.38;;
22628;SDS011;11481;53.694;9.910;2023-05-14T12:00:10;4.57;;;2.97;;
22628;SDS011;11481;53.694;9.910;2023-05-14T12:02:47;4.07;;;2.65;;
22628;SDS011;11481;53.694;9.910;2023-05-14T12:05:14;3.67;;;2.40;;
22628;SDS011;11481;53.694;9.910;2023-05-14T12:07:43;10.45;;;3.20;;
22628;SDS011;11481;53.694;9.910;2023-05-14T12:10:11;5.15;;;2.80;;
22628;SDS011;11481;53.694;9.910;2023-05-14T12:12:38;5.82;;;2.90;;
22628;SDS011;11481;53.694;9.910;2023-05-14T12:15:11;4.15;;;2.72;;
22628;SDS011;11481;53.694;9.910;2023-05-14T12:17:39;4.53;;;2.65;;
22628;SDS011;11481;53.694;9.910;2023-05-14T12:20:09;8.63;;;3.40;;
22628;SDS011;11481;53.694;9.910;2023-05-14T12:22:36;6.60;;;3.65;;
22628;SDS011;11481;53.694;9.910;2023-05-14T12:25:08;4.95;;;2.85;;
22628;SDS011;11481;53.694;9.910;2023-05-14T12:27:37;5.13;;;3.13;;
22628;SDS011;11481;53.694;9.910;2023-05-14T12:30:05;5.25;;;3.25;;
22628;SDS011;11481;53.694;9.910;2023-05-14T12:32:47;5.53;;;3.38;;
22628;SDS011;11481;53.694;9.910;2023-05-14T12:35:17;4.03;;;2.70;;
22628;SDS011;11481;53.694;9.910;2023-05-14T12:37:43;5.05;;;3.13;;
22628;SDS011;11481;53.694;9.910;2023-05-14T12:40:10;5.93;;;3.22;;
22628;SDS011;11481;53.694;9.910;2023-05-14T12:42:37;5.05;;;3.10;;
22628;SDS011;11481;53.694;9.910;2023-05-14T12:45:04;5.20;;;3.30;;
22628;SDS011;11481;53.694;9.910;2023-05-14T12:47:34;4.40;;;3.17;;
22628;SDS011;11481;53.694;9.910;2023-05-14T12:50:01;7.45;;;3.22;;
22628;SDS011;11481;53.694;9.910;2023-05-14T12:52:28;6.38;;;3.38;;
22628;SDS011;11481;53.694;9.910;2023-05-14T12:54:58;5.65;;;3.40;;
22628;SDS011;11481;53.694;9.910;2023-05-14T12:57:24;5.00;;;3.08;;
22628;SDS011;11481;53.694;9.910;2023-05-14T12:59:53;5.88;;;3.20;;
22628;SDS011;11481;53.694;9.910;2023-05-14T13:02:20;4.88;;;3.03;;
22628;SDS011;11481;53.694;9.910;2023-05-14T13:04:47;5.38;;;3.33;;
22628;SDS011;11481;53.694;9.910;2023-05-14T13:07:15;5.03;;;3.28;;
22628;SDS011;11481;53.694;9.910;2023-05-14T13:09:42;4.80;;;2.97;;
22628;SDS011;11481;53.694;9.910;2023-05-14T13:12:09;7.75;;;3.13;;
22628;SDS011;11481;53.694;9.910;2023-05-14T13:14:36;4.95;;;2.75;;
22628;SDS011;11481;53.694;9.910;2023-05-14T13:17:04;5.63;;;3.45;;
22628;SDS011;11481;53.694;9.910;2023-05-14T13:19:33;4.43;;;3.17;;
22628;SDS011;11481;53.694;9.910;2023-05-14T13:21:59;4.82;;;3.10;;
22628;SDS011;11481;53.694;9.910;2023-05-14T13:24:26;5.20;;;3.08;;
22628;SDS011;11481;53.694;9.910;2023-05-14T13:26:52;7.80;;;3.28;;
22628;SDS011;11481;53.694;9.910;2023-05-14T13:29:20;4.82;;;3.10;;
22628;SDS011;11481;53.694;9.910;2023-05-14T13:31:47;5.05;;;3.03;;
22628;SDS011;11481;53.694;9.910;2023-05-14T13:34:13;4.07;;;2.92;;
22628;SDS011;11481;53.694;9.910;2023-05-14T13:36:40;6.38;;;2.90;;
22628;SDS011;11481;53.694;9.910;2023-05-14T13:39:08;4.25;;;2.90;;
22628;SDS011;11481;53.694;9.910;2023-05-14T13:41:40;4.60;;;3.00;;
22628;SDS011;11481;53.694;9.910;2023-05-14T13:44:06;5.95;;;3.10;;
22628;SDS011;11481;53.694;9.910;2023-05-14T13:46:33;6.97;;;3.28;;
22628;SDS011;11481;53.694;9.910;2023-05-14T13:49:00;4.82;;;2.97;;
22628;SDS011;11481;53.694;9.910;2023-05-14T13:51:27;3.80;;;2.67;;
22628;SDS011;11481;53.694;9.910;2023-05-14T13:53:53;5.72;;;3.00;;
22628;SDS011;11481;53.694;9.910;2023-05-14T13:56:25;5.07;;;2.90;;
22628;SDS011;11481;53.694;9.910;2023-05-14T13:58:51;6.15;;;2.83;;
22628;SDS011;11481;53.694;9.910;2023-05-14T14:01:18;5.82;;;2.67;;
22628;SDS011;11481;53.694;9.910;2023-05-14T14:03:45;5.30;;;2.70;;
22628;SDS011;11481;53.694;9.910;2023-05-14T14:06:12;5.65;;;2.83;;
22628;SDS011;11481;53.694;9.910;2023-05-14T14:08:38;4.97;;;3.13;;
22628;SDS011;11481;53.694;9.910;2023-05-14T14:11:05;4.15;;;2.53;;
22628;SDS011;11481;53.694;9.910;2023-05-14T14:13:32;4.85;;;2.65;;
22628;SDS011;11481;53.694;9.910;2023-05-14T14:15:58;5.40;;;2.67;;
22628;SDS011;11481;53.694;9.910;2023-05-14T14:18:25;5.55;;;2.58;;
22628;SDS011;11481;53.694;9.910;2023-05-14T14:20:52;7.82;;;2.40;;
22628;SDS011;11481;53.694;9.910;2023-05-14T14:23:18;5.72;;;2.90;;
22628;SDS011;11481;53.694;9.910;2023-05-14T14:25:45;4.38;;;2.63;;
22628;SDS011;11481;53.694;9.910;2023-05-14T14:28:12;5.82;;;2.60;;
22628;SDS011;11481;53.694;9.910;2023-05-14T14:30:39;4.65;;;3.03;;
22628;SDS011;11481;53.694;9.910;2023-05-14T14:33:06;4.00;;;2.90;;
22628;SDS011;11481;53.694;9.910;2023-05-14T14:35:33;5.18;;;3.00;;
22628;SDS011;11481;53.694;9.910;2023-05-14T14:38:00;4.75;;;2.95;;
22628;SDS011;11481;53.694;9.910;2023-05-14T14:40:28;5.40;;;2.65;;
22628;SDS011;11481;53.694;9.910;2023-05-14T14:42:55;4.55;;;2.80;;
22628;SDS011;11481;53.694;9.910;2023-05-14T14:45:21;4.55;;;2.80;;
22628;SDS011;11481;53.694;9.910;2023-05-14T14:47:48;8.93;;;2.95;;
22628;SDS011;11481;53.694;9.910;2023-05-14T14:50:17;3.90;;;2.95;;
22628;SDS011;11481;53.694;9.910;2023-05-14T14:52:43;8.23;;;3.40;;
22628;SDS011;11481;53.694;9.910;2023-05-14T14:55:12;7.70;;;2.90;;